sensor_id;sensor_type;location;lat;lon;timestamp;P1;durP1;ratioP1;P2;durP2;ratioP2
21000;SDS011;10658;50.920;12.238;2023-03-03T00:00:11;63.25;;;20.75;;
21000;SDS011;10658;50.920;12.238;2023-03-03T00:04:17;68.13;;;21.95;;
21000;SDS011;10658;50.920;12.238;2023-03-03T00:08:21;50.30;;;18.92;;
21000;SDS011;10658;50.920;12.238;2023-03-03T00:12:26;46.90;;;18.08;;
21000;SDS011;10658;50.920;12.238;2023-03-03T00:16:49;65.97;;;23.10;;
21000;SDS011;10658;50.920;12.238;2023-03-03T00:20:52;56.72;;;19.40;;
21000;SDS011;10658;50.920;12.238;2023-03-03T00:25:18;65.15;;;19.95;;
21000;SDS011;10658;50.920;12.238;2023-03-03T00:29:34;63.45;;;22.33;;
21000;SDS011;10658;50.920;12.238;2023-03-03T00:33:40;64.20;;;21.02;;
21000;SDS011;10658;50.920;12.238;2023-03-03T00:37:47;75.38;;;22.25;;
21000;SDS011;10658;50.920;12.238;2023-03-03T00:41:55;63.17;;;19.95;;
21000;SDS011;10658;50.920;12.238;2023-03-03T00:45:57;78.35;;;21.42;;
21000;SDS011;10658;50.920;12.238;2023-03-03T00:54:09;41.45;;;16.88;;
21000;SDS011;10658;50.920;12.238;2023-03-03T00:58:10;58.25;;;18.60;;
21000;SDS011;10658;50.920;12.238;2023-03-03T01:02:17;57.78;;;18.15;;
21000;SDS011;10658;50.920;12.238;2023-03-03T01:06:18;47.05;;;18.67;;
21000;SDS011;10658;50.920;12.238;2023-03-03T01:10:21;62.20;;;20.38;;
21000;SDS011;10658;50.920;12.238;2023-03-03T01:14:23;63.22;;;17.98;;
21000;SDS011;10658;50.920;12.238;2023-03-03T01:18:27;62.08;;;18.55;;
21000;SDS011;10658;50.920;12.238;2023-03-03T01:22:29;60.53;;;17.90;;
21000;SDS011;10658;50.920;12.238;2023-03-03T01:26:32;40.97;;;16.20;;
21000;SDS011;10658;50.920;12.238;2023-03-03T01:30:38;51.10;;;17.88;;
21000;SDS011;10658;50.920;12.238;2023-03-03T01:35:03;42.65;;;16.48;;
21000;SDS011;10658;50.920;12.238;2023-03-03T01:39:10;35.53;;;14.77;;
21000;SDS011;10658;50.920;12.238;2023-03-03T01:43:13;40.35;;;15.88;;
21000;SDS011;10658;50.920;12.238;2023-03-03T01:47:23;48.88;;;16.15;;
21000;SDS011;10658;50.920;12.238;2023-03-03T01:51:35;54.53;;;17.00;;
21000;SDS011;10658;50.920;12.238;2023-03-03T01:55:44;46.67;;;17.85;;
21000;SDS011;10658;50.920;12.238;2023-03-03T01:59:48;49.50;;;17.65;;
21000;SDS011;10658;50.920;12.238;2023-03-03T02:03:52;45.35;;;17.80;;
21000;SDS011;10658;50.920;12.238;2023-03-03T02:07:59;35.92;;;16.10;;
21000;SDS011;10658;50.920;12.238;2023-03-03T02:12:02;59.30;;;17.65;;
21000;SDS011;10658;50.920;12.238;2023-03-03T02:16:07;56.40;;;15.60;;
21000;SDS011;10658;50.920;12.238;2023-03-03T02:20:17;40.20;;;15.77;;
21000;SDS011;10658;50.920;12.238;2023-03-03T02:24:48;40.45;;;15.80;;
21000;SDS011;10658;50.920;12.238;2023-03-03T02:28:58;48.05;;;15.32;;
21000;SDS011;10658;50.920;12.238;2023-03-03T02:33:03;41.80;;;16.80;;
21000;SDS011;10658;50.920;12.238;2023-03-03T02:37:08;34.80;;;15.27;;
21000;SDS011;10658;50.920;12.238;2023-03-03T02:41:14;44.05;;;15.40;;
21000;SDS011;10658;50.920;12.238;2023-03-03T02:45:43;51.63;;;15.63;;
21000;SDS011;10658;50.920;12.238;2023-03-03T02:49:44;39.15;;;14.05;;
21000;SDS011;10658;50.920;12.238;2023-03-03T02:53:47;50.55;;;14.95;;
21000;SDS011;10658;50.920;12.238;2023-03-03T02:57:51;46.83;;;15.38;;
21000;SDS011;10658;50.920;12.238;2023-03-03T03:01:53;45.85;;;16.17;;
21000;SDS011;10658;50.920;12.238;2023-03-03T03:05:56;35.20;;;12.25;;
21000;SDS011;10658;50.920;12.238;2023-03-03T03:09:59;37.75;;;12.63;;
21000;SDS011;10658;50.920;12.238;2023-03-03T03:14:07;40.50;;;12.30;;
21000;SDS011;10658;50.920;12.238;2023-03-03T03:18:10;33.72;;;11.77;;
21000;SDS011;10658;50.920;12.238;2023-03-03T03:22:30;39.75;;;13.25;;
21000;SDS011;10658;50.920;12.238;2023-03-03T03:26:32;33.78;;;13.32;;
21000;SDS011;10658;50.920;12.238;2023-03-03T03:30:34;29.48;;;11.77;;
21000;SDS011;10658;50.920;12.238;2023-03-03T03:34:36;48.00;;;14.68;;
21000;SDS011;10658;50.920;12.238;2023-03-03T03:38:39;50.72;;;15.98;;
21000;SDS011;10658;50.920;12.238;2023-03-03T03:42:42;41.15;;;14.75;;
21000;SDS011;10658;50.920;12.238;2023-03-03T03:46:44;52.33;;;16.00;;
21000;SDS011;10658;50.920;12.238;2023-03-03T03:50:46;73.22;;;18.40;;
21000;SDS011;10658;50.920;12.238;2023-03-03T03:54:50;43.53;;;15.73;;
21000;SDS011;10658;50.920;12.238;2023-03-03T03:58:54;44.90;;;15.93;;
21000;SDS011;10658;50.920;12.238;2023-03-03T04:02:56;42.25;;;15.38;;
21000;SDS011;10658;50.920;12.238;2023-03-03T04:06:59;38.15;;;15.63;;
21000;SDS011;10658;50.920;12.238;2023-03-03T04:11:01;42.58;;;14.82;;
21000;SDS011;10658;50.920;12.238;2023-03-03T04:15:06;41.83;;;13.20;;
21000;SDS011;10658;50.920;12.238;2023-03-03T04:19:29;34.17;;;14.15;;
21000;SDS011;10658;50.920;12.238;2023-03-03T04:23:32;42.92;;;15.40;;
21000;SDS011;10658;50.920;12.238;2023-03-03T04:27:36;44.15;;;14.45;;
21000;SDS011;10658;50.920;12.238;2023-03-03T04:31:39;48.55;;;15.45;;
21000;SDS011;10658;50.920;12.238;2023-03-03T04:35:44;45.10;;;16.10;;
21000;SDS011;10658;50.920;12.238;2023-03-03T04:39:48;45.53;;;16.13;;
21000;SDS011;10658;50.920;12.238;2023-03-03T04:43:50;51.78;;;15.95;;
21000;SDS011;10658;50.920;12.238;2023-03-03T04:47:59;44.05;;;15.77;;
21000;SDS011;10658;50.920;12.238;2023-03-03T04:52:04;50.30;;;14.90;;
21000;SDS011;10658;50.920;12.238;2023-03-03T04:56:06;41.22;;;13.00;;
21000;SDS011;10658;50.920;12.238;2023-03-03T05:00:10;50.22;;;17.42;;
21000;SDS011;10658;50.920;12.238;2023-03-03T05:04:13;47.10;;;16.38;;
21000;SDS011;10658;50.920;12.238;2023-03-03T05:08:15;55.38;;;17.27;;
21000;SDS011;10658;50.920;12.238;2023-03-03T05:12:16;52.25;;;18.10;;
21000;SDS011;10658;50.920;12.238;2023-03-03T05:16:19;37.40;;;13.48;;
21000;SDS011;10658;50.920;12.238;2023-03-03T05:20:23;41.25;;;16.67;;
21000;SDS011;10658;50.920;12.238;2023-03-03T05:24:27;56.00;;;15.77;;
21000;SDS011;10658;50.920;12.238;2023-03-03T05:28:29;50.70;;;15.80;;
21000;SDS011;10658;50.920;12.238;2023-03-03T05:32:31;58.15;;;17.15;;
21000;SDS011;10658;50.920;12.238;2023-03-03T05:36:33;55.05;;;15.75;;
21000;SDS011;10658;50.920;12.238;2023-03-03T05:40:37;54.22;;;16.55;;
21000;SDS011;10658;50.920;12.238;2023-03-03T05:44:40;55.88;;;16.38;;
21000;SDS011;10658;50.920;12.238;2023-03-03T05:48:42;65.97;;;17.27;;
21000;SDS011;10658;50.920;12.238;2023-03-03T05:52:46;65.03;;;16.43;;
21000;SDS011;10658;50.920;12.238;2023-03-03T05:56:51;61.22;;;18.50;;
21000;SDS011;10658;50.920;12.238;2023-03-03T06:00:53;77.15;;;18.35;;
21000;SDS011;10658;50.920;12.238;2023-03-03T06:04:55;54.70;;;17.00;;
21000;SDS011;10658;50.920;12.238;2023-03-03T06:08:56;55.33;;;16.03;;
21000;SDS011;10658;50.920;12.238;2023-03-03T06:12:57;43.47;;;17.13;;
21000;SDS011;10658;50.920;12.238;2023-03-03T06:17:21;53.20;;;15.15;;
21000;SDS011;10658;50.920;12.238;2023-03-03T06:21:22;65.85;;;17.80;;
21000;SDS011;10658;50.920;12.238;2023-03-03T06:25:23;53.87;;;16.53;;
21000;SDS011;10658;50.920;12.238;2023-03-03T06:29:26;76.30;;;18.83;;
21000;SDS011;10658;50.920;12.238;2023-03-03T06:33:27;56.22;;;17.52;;
21000;SDS011;10658;50.920;12.238;2023-03-03T06:37:28;57.47;;;15.95;;
21000;SDS011;10658;50.920;12.238;2023-03-03T06:41:31;45.63;;;15.15;;
21000;SDS011;10658;50.920;12.238;2023-03-03T06:45:33;42.42;;;13.70;;
21000;SDS011;10658;50.920;12.238;2023-03-03T06:49:35;36.85;;;13.40;;
21000;SDS011;10658;50.920;12.238;2023-03-03T06:53:57;26.08;;;9.93;;
21000;SDS011;10658;50.920;12.238;2023-03-03T06:58:13;48.30;;;13.80;;
21000;SDS011;10658;50.920;12.238;2023-03-03T07:02:20;33.40;;;13.73;;
21000;SDS011;10658;50.920;12.238;2023-03-03T07:06:22;33.85;;;13.35;;
21000;SDS011;10658;50.920;12.238;2023-03-03T07:10:28;36.33;;;12.73;;
21000;SDS011;10658;50.920;12.238;2023-03-03T07:14:30;40.60;;;13.20;;
21000;SDS011;10658;50.920;12.238;2023-03-03T07:22:40;37.80;;;12.63;;
21000;SDS011;10658;50.920;12.238;2023-03-03T07:26:53;30.85;;;12.32;;
21000;SDS011;10658;50.920;12.238;2023-03-03T07:31:03;33.63;;;12.73;;
21000;SDS011;10658;50.920;12.238;2023-03-03T07:35:42;33.83;;;11.15;;
21000;SDS011;10658;50.920;12.238;2023-03-03T07:39:46;29.67;;;10.98;;
21000;SDS011;10658;50.920;12.238;2023-03-03T07:43:54;25.45;;;10.15;;
21000;SDS011;10658;50.920;12.238;2023-03-03T07:52:22;19.95;;;8.10;;
21000;SDS011;10658;50.920;12.238;2023-03-03T07:56:44;24.70;;;9.52;;
21000;SDS011;10658;50.920;12.238;2023-03-03T08:01:48;17.35;;;8.70;;
21000;SDS011;10658;50.920;12.238;2023-03-03T08:13:44;17.70;;;6.53;;
21000;SDS011;10658;50.920;12.238;2023-03-03T08:17:47;20.40;;;7.45;;
21000;SDS011;10658;50.920;12.238;2023-03-03T08:21:53;24.55;;;9.10;;
21000;SDS011;10658;50.920;12.238;2023-03-03T08:26:04;29.20;;;9.18;;
21000;SDS011;10658;50.920;12.238;2023-03-03T08:30:06;29.55;;;11.93;;
21000;SDS011;10658;50.920;12.238;2023-03-03T08:34:10;26.58;;;11.50;;
21000;SDS011;10658;50.920;12.238;2023-03-03T08:38:12;29.38;;;12.40;;
21000;SDS011;10658;50.920;12.238;2023-03-03T08:42:15;35.33;;;13.45;;
21000;SDS011;10658;50.920;12.238;2023-03-03T08:46:18;39.20;;;13.57;;
21000;SDS011;10658;50.920;12.238;2023-03-03T08:50:19;34.53;;;13.00;;
21000;SDS011;10658;50.920;12.238;2023-03-03T08:54:21;35.20;;;14.32;;
21000;SDS011;10658;50.920;12.238;2023-03-03T08:58:26;43.67;;;15.07;;
21000;SDS011;10658;50.920;12.238;2023-03-03T09:02:28;37.15;;;14.77;;
21000;SDS011;10658;50.920;12.238;2023-03-03T09:06:30;45.25;;;15.98;;
21000;SDS011;10658;50.920;12.238;2023-03-03T09:10:32;40.97;;;15.45;;
21000;SDS011;10658;50.920;12.238;2023-03-03T09:14:34;40.03;;;15.40;;
21000;SDS011;10658;50.920;12.238;2023-03-03T09:18:37;42.42;;;17.27;;
21000;SDS011;10658;50.920;12.238;2023-03-03T09:22:38;42.90;;;16.90;;
21000;SDS011;10658;50.920;12.238;2023-03-03T09:30:51;50.00;;;18.23;;
21000;SDS011;10658;50.920;12.238;2023-03-03T09:34:55;52.10;;;19.55;;
21000;SDS011;10658;50.920;12.238;2023-03-03T09:38:59;47.45;;;17.45;;
21000;SDS011;10658;50.920;12.238;2023-03-03T09:43:17;37.05;;;15.52;;
21000;SDS011;10658;50.920;12.238;2023-03-03T09:48:03;40.53;;;15.80;;
21000;SDS011;10658;50.920;12.238;2023-03-03T09:56:33;35.90;;;15.50;;
21000;SDS011;10658;50.920;12.238;2023-03-03T10:05:22;26.67;;;11.88;;
21000;SDS011;10658;50.920;12.238;2023-03-03T10:09:41;36.78;;;13.98;;
21000;SDS011;10658;50.920;12.238;2023-03-03T10:57:12;30.98;;;12.65;;
21000;SDS011;10658;50.920;12.238;2023-03-03T11:01:44;29.65;;;13.43;;
21000;SDS011;10658;50.920;12.238;2023-03-03T11:06:00;33.30;;;15.48;;
21000;SDS011;10658;50.920;12.238;2023-03-03T11:19:00;38.67;;;15.35;;
21000;SDS011;10658;50.920;12.238;2023-03-03T11:36:38;43.72;;;18.35;;
21000;SDS011;10658;50.920;12.238;2023-03-03T11:45:33;44.25;;;17.70;;
21000;SDS011;10658;50.920;12.238;2023-03-03T11:54:22;41.72;;;18.92;;
21000;SDS011;10658;50.920;12.238;2023-03-03T12:03:01;33.08;;;16.73;;
21000;SDS011;10658;50.920;12.238;2023-03-03T12:11:23;40.55;;;16.00;;
21000;SDS011;10658;50.920;12.238;2023-03-03T12:24:53;34.65;;;16.48;;
21000;SDS011;10658;50.920;12.238;2023-03-03T12:33:49;39.83;;;18.33;;
21000;SDS011;10658;50.920;12.238;2023-03-03T12:38:23;38.05;;;16.25;;
21000;SDS011;10658;50.920;12.238;2023-03-03T12:50:51;42.60;;;18.17;;
21000;SDS011;10658;50.920;12.238;2023-03-03T13:03:54;45.65;;;20.98;;
21000;SDS011;10658;50.920;12.238;2023-03-03T13:08:11;55.05;;;18.98;;
21000;SDS011;10658;50.920;12.238;2023-03-03T13:12:39;48.33;;;19.65;;
21000;SDS011;10658;50.920;12.238;2023-03-03T13:17:29;40.47;;;18.40;;
21000;SDS011;10658;50.920;12.238;2023-03-03T13:30:13;47.83;;;17.83;;
21000;SDS011;10658;50.920;12.238;2023-03-03T13:34:35;46.45;;;19.85;;
21000;SDS011;10658;50.920;12.238;2023-03-03T13:38:48;38.80;;;16.63;;
21000;SDS011;10658;50.920;12.238;2023-03-03T13:47:39;38.58;;;17.27;;
21000;SDS011;10658;50.920;12.238;2023-03-03T13:52:09;38.70;;;16.77;;
21000;SDS011;10658;50.920;12.238;2023-03-03T14:14:06;45.63;;;20.10;;
21000;SDS011;10658;50.920;12.238;2023-03-03T14:22:45;41.80;;;17.27;;
21000;SDS011;10658;50.920;12.238;2023-03-03T14:31:16;39.47;;;18.48;;
21000;SDS011;10658;50.920;12.238;2023-03-03T14:35:34;43.88;;;19.40;;
21000;SDS011;10658;50.920;12.238;2023-03-03T14:39:49;42.95;;;19.48;;
21000;SDS011;10658;50.920;12.238;2023-03-03T14:44:26;49.75;;;19.38;;
21000;SDS011;10658;50.920;12.238;2023-03-03T14:48:36;47.80;;;19.45;;
21000;SDS011;10658;50.920;12.238;2023-03-03T14:57:18;56.05;;;22.63;;
21000;SDS011;10658;50.920;12.238;2023-03-03T15:01:46;54.45;;;22.30;;
21000;SDS011;10658;50.920;12.238;2023-03-03T15:05:57;55.55;;;22.10;;
21000;SDS011;10658;50.920;12.238;2023-03-03T15:10:00;50.90;;;20.95;;
21000;SDS011;10658;50.920;12.238;2023-03-03T15:14:11;47.88;;;20.70;;
21000;SDS011;10658;50.920;12.238;2023-03-03T15:18:16;50.20;;;22.20;;
21000;SDS011;10658;50.920;12.238;2023-03-03T15:22:20;44.45;;;17.95;;
21000;SDS011;10658;50.920;12.238;2023-03-03T15:31:29;35.33;;;14.95;;
21000;SDS011;10658;50.920;12.238;2023-03-03T15:36:14;30.20;;;13.50;;
21000;SDS011;10658;50.920;12.238;2023-03-03T15:40:27;36.30;;;14.32;;
21000;SDS011;10658;50.920;12.238;2023-03-03T15:57:47;36.53;;;14.45;;
21000;SDS011;10658;50.920;12.238;2023-03-03T16:02:05;35.35;;;14.27;;
21000;SDS011;10658;50.920;12.238;2023-03-03T16:06:38;32.97;;;14.32;;
21000;SDS011;10658;50.920;12.238;2023-03-03T16:11:01;28.33;;;12.57;;
21000;SDS011;10658;50.920;12.238;2023-03-03T16:19:34;25.48;;;11.43;;
21000;SDS011;10658;50.920;12.238;2023-03-03T16:23:46;32.28;;;12.70;;
21000;SDS011;10658;50.920;12.238;2023-03-03T16:36:28;26.67;;;11.73;;
21000;SDS011;10658;50.920;12.238;2023-03-03T16:40:55;25.60;;;11.38;;
21000;SDS011;10658;50.920;12.238;2023-03-03T16:58:22;24.88;;;10.52;;
21000;SDS011;10658;50.920;12.238;2023-03-03T17:07:49;28.52;;;12.77;;
21000;SDS011;10658;50.920;12.238;2023-03-03T17:12:13;25.02;;;12.25;;
21000;SDS011;10658;50.920;12.238;2023-03-03T17:16:42;21.90;;;11.00;;
21000;SDS011;10658;50.920;12.238;2023-03-03T17:20:55;23.95;;;11.00;;
21000;SDS011;10658;50.920;12.238;2023-03-03T17:43:12;18.95;;;7.40;;
21000;SDS011;10658;50.920;12.238;2023-03-03T17:48:02;20.67;;;8.57;;
21000;SDS011;10658;50.920;12.238;2023-03-03T17:56:46;20.67;;;10.75;;
21000;SDS011;10658;50.920;12.238;2023-03-03T18:01:02;16.15;;;8.05;;
21000;SDS011;10658;50.920;12.238;2023-03-03T18:10:47;15.50;;;7.78;;
21000;SDS011;10658;50.920;12.238;2023-03-03T18:24:25;17.75;;;8.55;;
21000;SDS011;10658;50.920;12.238;2023-03-03T18:28:46;17.63;;;7.40;;
21000;SDS011;10658;50.920;12.238;2023-03-03T19:14:55;16.02;;;7.32;;
21000;SDS011;10658;50.920;12.238;2023-03-03T19:18:58;16.33;;;7.90;;
21000;SDS011;10658;50.920;12.238;2023-03-03T19:23:04;14.68;;;7.90;;
21000;SDS011;10658;50.920;12.238;2023-03-03T19:45:47;13.40;;;7.45;;
21000;SDS011;10658;50.920;12.238;2023-03-03T19:50:28;15.98;;;7.55;;
21000;SDS011;10658;50.920;12.238;2023-03-03T19:59:41;12.13;;;5.93;;
21000;SDS011;10658;50.920;12.238;2023-03-03T20:04:18;12.02;;;6.82;;
21000;SDS011;10658;50.920;12.238;2023-03-03T20:08:39;12.55;;;6.18;;
21000;SDS011;10658;50.920;12.238;2023-03-03T20:13:11;12.50;;;6.53;;
21000;SDS011;10658;50.920;12.238;2023-03-03T20:30:22;11.73;;;5.05;;
21000;SDS011;10658;50.920;12.238;2023-03-03T20:38:58;9.98;;;4.95;;
21000;SDS011;10658;50.920;12.238;2023-03-03T20:43:27;10.77;;;5.55;;
21000;SDS011;10658;50.920;12.238;2023-03-03T20:48:00;13.30;;;7.45;;
21000;SDS011;10658;50.920;12.238;2023-03-03T20:57:06;13.52;;;6.32;;
21000;SDS011;10658;50.920;12.238;2023-03-03T21:06:07;14.65;;;7.53;;
21000;SDS011;10658;50.920;12.238;2023-03-03T21:10:19;12.50;;;6.28;;
21000;SDS011;10658;50.920;12.238;2023-03-03T21:14:43;15.63;;;7.95;;
21000;SDS011;10658;50.920;12.238;2023-03-03T21:19:02;11.27;;;6.45;;
21000;SDS011;10658;50.920;12.238;2023-03-03T21:23:12;12.23;;;6.30;;
21000;SDS011;10658;50.920;12.238;2023-03-03T21:27:30;12.40;;;6.78;;
21000;SDS011;10658;50.920;12.238;2023-03-03T21:31:45;12.50;;;6.00;;
21000;SDS011;10658;50.920;12.238;2023-03-03T21:35:57;10.02;;;5.75;;
21000;SDS011;10658;50.920;12.238;2023-03-03T21:44:36;14.30;;;6.53;;
21000;SDS011;10658;50.920;12.238;2023-03-03T21:48:51;11.23;;;6.65;;
21000;SDS011;10658;50.920;12.238;2023-03-03T21:52:54;12.25;;;7.05;;
21000;SDS011;10658;50.920;12.238;2023-03-03T21:56:55;10.52;;;6.32;;
21000;SDS011;10658;50.920;12.238;2023-03-03T22:00:57;12.00;;;6.63;;
21000;SDS011;10658;50.920;12.238;2023-03-03T22:04:58;16.73;;;6.85;;
21000;SDS011;10658;50.920;12.238;2023-03-03T22:09:03;13.00;;;7.30;;
21000;SDS011;10658;50.920;12.238;2023-03-03T22:13:07;10.23;;;6.50;;
21000;SDS011;10658;50.920;12.238;2023-03-03T22:17:14;12.93;;;6.60;;
21000;SDS011;10658;50.920;12.238;2023-03-03T22:21:16;10.85;;;7.10;;
21000;SDS011;10658;50.920;12.238;2023-03-03T22:25:17;11.57;;;6.47;;
21000;SDS011;10658;50.920;12.238;2023-03-03T22:29:18;12.80;;;6.60;;
21000;SDS011;10658;50.920;12.238;2023-03-03T22:33:23;11.13;;;6.68;;
21000;SDS011;10658;50.920;12.238;2023-03-03T22:37:26;13.45;;;7.95;;
21000;SDS011;10658;50.920;12.238;2023-03-03T22:41:28;11.35;;;6.30;;
21000;SDS011;10658;50.920;12.238;2023-03-03T22:45:31;13.18;;;7.28;;
21000;SDS011;10658;50.920;12.238;2023-03-03T22:49:39;15.55;;;7.25;;
21000;SDS011;10658;50.920;12.238;2023-03-03T22:53:40;14.48;;;7.43;;
21000;SDS011;10658;50.920;12.238;2023-03-03T22:57:42;15.05;;;8.60;;
21000;SDS011;10658;50.920;12.238;2023-03-03T23:01:43;12.98;;;7.65;;
21000;SDS011;10658;50.920;12.238;2023-03-03T23:05:50;14.48;;;7.00;;
21000;SDS011;10658;50.920;12.238;2023-03-03T23:09:55;9.77;;;6.03;;
21000;SDS011;10658;50.920;12.238;2023-03-03T23:13:57;10.30;;;6.18;;
21000;SDS011;10658;50.920;12.238;2023-03-03T23:17:59;13.70;;;6.50;;
21000;SDS011;10658;50.920;12.238;2023-03-03T23:22:00;10.45;;;6.70;;
21000;SDS011;10658;50.920;12.238;2023-03-03T23:26:03;11.98;;;6.65;;
21000;SDS011;10658;50.920;12.238;2023-03-03T23:30:12;14.45;;;7.43;;
21000;SDS011;10658;50.920;12.238;2023-03-03T23:34:15;11.90;;;6.07;;
21000;SDS011;10658;50.920;12.238;2023-03-03T23:38:17;13.23;;;7.10;;
21000;SDS011;10658;50.920;12.238;2023-03-03T23:42:25;13.85;;;7.32;;
21000;SDS011;10658;50.920;12.238;2023-03-03T23:46:30;14.18;;;7.32;;
21000;SDS011;10658;50.920;12.238;2023-03-03T23:50:35;13.52;;;6.60;;
21000;SDS011;10658;50.920;12.238;2023-03-03T23:54:56;13.23;;;7.10;;
21000;SDS011;10658;50.920;12.238;2023-03-03T23:58:58;15.90;;;8.27;;
